createdAt,value
2016-12-03T00:00:12.884Z,99.71
2016-12-03T00:01:13.493Z,99.71
2016-12-03T00:02:14.101Z,99.9
2016-12-03T00:03:14.749Z,99.99
2016-12-03T00:04:15.358Z,99.99
2016-12-03T00:05:15.971Z,99.99
2016-12-03T00:06:16.592Z,99.99
2016-12-03T00:07:17.197Z,99.99
2016-12-03T00:08:17.811Z,99.99
2016-12-03T00:09:18.446Z,99.99
2016-12-03T00:10:19.096Z,99.9
2016-12-03T00:11:19.699Z,99.71
2016-12-03T00:12:20.334Z,99.71
2016-12-03T00:13:20.957Z,99.9
2016-12-03T00:14:21.569Z,99.99
2016-12-03T00:15:22.207Z,99.62
2016-12-03T00:16:22.826Z,99.99
2016-12-03T00:17:23.442Z,99.99
2016-12-03T00:18:24.058Z,99.99
2016-12-03T00:19:24.681Z,99.99
2016-12-03T00:20:25.320Z,99.99
2016-12-03T00:21:25.954Z,99.99
2016-12-03T00:22:26.624Z,99.99
2016-12-03T00:23:27.243Z,99.99
2016-12-03T00:24:27.862Z,99.99
2016-12-03T00:25:28.475Z,99.99
2016-12-03T00:26:29.087Z,99.99
2016-12-03T00:27:29.713Z,99.99
2016-12-03T00:28:30.325Z,99.99
2016-12-03T00:29:30.954Z,99.99
2016-12-03T00:30:31.572Z,99.99
2016-12-03T00:31:32.201Z,99.99
2016-12-03T00:32:32.800Z,99.99
2016-12-03T00:33:33.431Z,99.99
2016-12-03T00:34:34.052Z,99.99
2016-12-03T00:35:34.682Z,99.99
2016-12-03T00:36:35.315Z,99.99
2016-12-03T00:37:35.937Z,99.99
2016-12-03T00:38:36.555Z,99.99
2016-12-03T00:39:37.155Z,99.99
2016-12-03T00:40:37.769Z,99.99
2016-12-03T00:41:38.390Z,99.99
2016-12-03T00:42:38.999Z,99.99
2016-12-03T00:43:39.602Z,99.99
2016-12-03T00:44:40.217Z,99.99
2016-12-03T00:45:40.825Z,99.99
2016-12-03T00:46:41.452Z,99.99
2016-12-03T00:47:42.058Z,99.99
2016-12-03T00:48:42.672Z,99.99
2016-12-03T00:49:43.318Z,99.99
2016-12-03T00:50:43.931Z,99.99
2016-12-03T00:51:44.550Z,99.99
2016-12-03T00:52:45.175Z,99.99
2016-12-03T00:53:45.814Z,99.99
2016-12-03T00:54:46.478Z,99.99
2016-12-03T00:55:47.096Z,99.99
2016-12-03T00:56:47.786Z,99.99
2016-12-03T00:57:48.391Z,99.99
2016-12-03T00:58:49.033Z,99.99
2016-12-03T00:59:49.672Z,99.99
2016-12-03T01:00:50.329Z,99.99
2016-12-03T01:01:50.979Z,99.99
2016-12-03T01:02:51.575Z,99.99
2016-12-03T01:03:52.184Z,99.99
2016-12-03T01:04:52.795Z,99.99
2016-12-03T01:05:53.459Z,99.99
2016-12-03T01:06:54.090Z,99.99
2016-12-03T01:07:54.737Z,99.99
2016-12-03T01:08:55.377Z,99.99
2016-12-03T01:09:55.997Z,99.99
2016-12-03T01:10:56.624Z,99.99
2016-12-03T01:11:57.248Z,99.99
2016-12-03T01:12:57.870Z,99.99
2016-12-03T01:13:58.488Z,99.99
2016-12-03T01:14:59.107Z,99.99
2016-12-03T01:15:59.728Z,99.99
2016-12-03T01:17:00.350Z,99.99
2016-12-03T01:18:00.976Z,99.99
2016-12-03T01:19:01.597Z,99.99
2016-12-03T01:20:02.203Z,99.99
2016-12-03T01:21:02.812Z,99.99
2016-12-03T01:22:03.431Z,99.99
2016-12-03T01:23:04.052Z,99.99
2016-12-03T01:24:04.662Z,99.99
2016-12-03T01:25:05.307Z,99.99
2016-12-03T01:26:05.928Z,99.99
2016-12-03T01:27:06.563Z,99.99
2016-12-03T01:28:07.172Z,99.99
2016-12-03T01:29:07.784Z,99.99
2016-12-03T01:30:08.412Z,99.99
2016-12-03T01:31:09.034Z,99.99
2016-12-03T01:32:09.661Z,99.99
2016-12-03T01:33:10.264Z,99.99
2016-12-03T01:34:10.885Z,99.99
2016-12-03T01:35:11.495Z,99.99
2016-12-03T01:36:12.109Z,99.99
2016-12-03T01:37:12.728Z,99.99
2016-12-03T01:38:13.344Z,99.99
2016-12-03T01:39:13.964Z,99.99
2016-12-03T01:40:14.582Z,99.99
2016-12-03T01:41:15.198Z,99.99
2016-12-03T01:42:15.806Z,99.99
2016-12-03T01:43:16.420Z,99.99
2016-12-03T01:44:17.071Z,99.99
2016-12-03T01:45:17.689Z,99.99
2016-12-03T01:46:18.310Z,99.99
2016-12-03T01:47:18.941Z,99.99
2016-12-03T01:48:19.558Z,99.99
2016-12-03T01:49:20.182Z,99.99
2016-12-03T01:50:20.794Z,99.99
2016-12-03T01:51:21.414Z,99.99
2016-12-03T01:52:22.038Z,99.99
2016-12-03T01:53:22.668Z,99.99
2016-12-03T01:54:23.290Z,99.99
2016-12-03T01:55:23.913Z,99.99
2016-12-03T01:56:24.558Z,99.99
2016-12-03T01:57:25.186Z,99.99
2016-12-03T01:58:25.819Z,99.99
2016-12-03T01:59:26.428Z,99.99
2016-12-03T02:00:27.046Z,99.99
2016-12-03T02:01:27.650Z,99.99
2016-12-03T02:02:28.254Z,99.99
2016-12-03T02:03:28.876Z,99.99
2016-12-03T02:04:29.497Z,99.99
2016-12-03T02:05:30.112Z,99.99
2016-12-03T02:06:30.722Z,99.99
2016-12-03T02:07:31.334Z,99.99
2016-12-03T02:08:31.954Z,99.99
2016-12-03T02:09:32.590Z,99.99
2016-12-03T02:10:33.206Z,99.99
2016-12-03T02:11:33.811Z,99.99
2016-12-03T02:12:34.441Z,99.99
2016-12-03T02:13:35.040Z,99.99
2016-12-03T02:14:35.663Z,99.99
2016-12-03T02:15:36.323Z,99.99
2016-12-03T02:16:36.925Z,99.99
2016-12-03T02:17:37.540Z,99.99
2016-12-03T02:18:38.162Z,99.99
2016-12-03T02:19:38.785Z,99.99
2016-12-03T02:20:39.390Z,99.99
2016-12-03T02:21:40.000Z,99.99
2016-12-03T02:22:40.622Z,99.99
2016-12-03T02:23:41.243Z,99.99
2016-12-03T02:24:41.850Z,99.99
2016-12-03T02:25:42.471Z,99.99
2016-12-03T02:26:43.078Z,99.99
2016-12-03T02:27:43.690Z,99.99
2016-12-03T02:28:44.313Z,99.99
2016-12-03T02:29:44.949Z,99.99
2016-12-03T02:30:45.561Z,99.99
2016-12-03T02:31:46.170Z,99.99
2016-12-03T02:32:46.787Z,99.99
2016-12-03T02:33:47.406Z,99.99
2016-12-03T02:34:48.033Z,99.99
2016-12-03T02:35:48.690Z,99.99
2016-12-03T02:36:49.327Z,99.99
2016-12-03T02:37:49.932Z,99.99
2016-12-03T02:38:50.558Z,99.99
2016-12-03T02:39:51.180Z,99.99
2016-12-03T02:40:51.810Z,99.99
2016-12-03T02:41:52.432Z,99.99
2016-12-03T02:42:53.038Z,99.99
2016-12-03T02:43:53.643Z,99.99
2016-12-03T02:44:54.293Z,99.99
2016-12-03T02:45:54.908Z,99.99
2016-12-03T02:46:55.527Z,99.99
2016-12-03T02:47:56.163Z,99.99
2016-12-03T02:48:56.780Z,99.99
2016-12-03T02:49:57.399Z,99.99
2016-12-03T02:50:58.040Z,99.99
2016-12-03T02:51:58.689Z,99.99
2016-12-03T02:52:59.313Z,99.99
2016-12-03T02:53:59.922Z,99.99
2016-12-03T02:55:00.553Z,99.99
2016-12-03T02:56:01.168Z,99.99
2016-12-03T02:57:01.775Z,99.99
2016-12-03T02:58:02.384Z,99.99
2016-12-03T02:59:02.992Z,99.99
2016-12-03T03:00:03.597Z,99.99
2016-12-03T03:01:04.243Z,99.99
2016-12-03T03:02:04.849Z,99.99
2016-12-03T03:03:05.492Z,99.99
2016-12-03T03:04:06.116Z,99.99
2016-12-03T03:05:06.737Z,99.99
2016-12-03T03:06:07.351Z,99.99
2016-12-03T03:07:07.971Z,99.99
2016-12-03T03:08:08.578Z,99.99
2016-12-03T03:09:09.190Z,99.99
2016-12-03T03:10:09.817Z,99.99
2016-12-03T03:11:10.435Z,99.99
2016-12-03T03:12:11.058Z,99.99
2016-12-03T03:13:11.679Z,99.99
2016-12-03T03:14:12.302Z,99.99
2016-12-03T03:15:12.969Z,99.99
2016-12-03T03:16:13.594Z,99.99
2016-12-03T03:17:14.213Z,99.99
2016-12-03T03:18:14.833Z,99.99
2016-12-03T03:19:15.451Z,99.99
2016-12-03T03:20:16.067Z,99.99
2016-12-03T03:21:16.685Z,99.99
2016-12-03T03:22:17.285Z,99.99
2016-12-03T03:23:17.931Z,99.99
2016-12-03T03:24:18.557Z,99.99
2016-12-03T03:25:19.183Z,99.99
2016-12-03T03:26:19.801Z,99.99
2016-12-03T03:27:20.411Z,99.99
2016-12-03T03:28:21.026Z,99.99
2016-12-03T03:29:21.635Z,99.99
2016-12-03T03:30:22.248Z,99.99
2016-12-03T03:31:22.855Z,99.99
2016-12-03T03:32:23.472Z,99.99
2016-12-03T03:33:24.076Z,99.99
2016-12-03T03:34:24.689Z,99.99
2016-12-03T03:35:25.333Z,99.99
2016-12-03T03:36:25.958Z,99.99
2016-12-03T03:37:26.771Z,99.99
2016-12-03T03:38:27.391Z,99.99
2016-12-03T03:39:27.998Z,99.99
2016-12-03T03:40:28.617Z,99.99
2016-12-03T03:41:29.267Z,99.99
2016-12-03T03:42:29.905Z,99.99
2016-12-03T03:43:30.515Z,99.99
2016-12-03T03:44:31.119Z,99.99
2016-12-03T03:45:31.763Z,99.99
2016-12-03T03:46:32.372Z,99.99
2016-12-03T03:47:32.997Z,99.99
2016-12-03T03:48:33.621Z,99.99
2016-12-03T03:49:34.261Z,99.99
2016-12-03T03:50:34.882Z,99.99
2016-12-03T03:51:35.502Z,99.99
2016-12-03T03:52:36.112Z,99.99
2016-12-03T03:53:36.726Z,99.99
2016-12-03T03:54:37.348Z,99.99
2016-12-03T03:55:37.952Z,99.99
2016-12-03T03:56:38.580Z,99.99
2016-12-03T03:57:39.211Z,99.99
2016-12-03T03:58:39.824Z,99.99
2016-12-03T03:59:40.475Z,99.99
2016-12-03T04:00:41.123Z,99.99
2016-12-03T04:01:41.736Z,99.99
2016-12-03T04:02:42.352Z,99.99
2016-12-03T04:03:42.993Z,99.99
2016-12-03T04:04:43.605Z,99.99
2016-12-03T04:05:44.238Z,99.99
2016-12-03T04:06:44.847Z,99.99
2016-12-03T04:07:45.474Z,99.99
2016-12-03T04:08:46.077Z,99.99
2016-12-03T04:09:46.679Z,99.99
2016-12-03T04:10:47.289Z,99.99
2016-12-03T04:11:47.942Z,99.99
2016-12-03T04:12:48.569Z,99.99
2016-12-03T04:13:49.187Z,99.99
2016-12-03T04:14:49.806Z,99.99
2016-12-03T04:15:50.430Z,99.99
2016-12-03T04:16:51.046Z,99.99
2016-12-03T04:17:51.659Z,99.99
2016-12-03T04:18:52.291Z,99.99
2016-12-03T04:19:52.903Z,99.99
2016-12-03T04:20:53.505Z,99.99
2016-12-03T04:21:54.130Z,99.99
2016-12-03T04:22:54.772Z,99.99
2016-12-03T04:23:55.372Z,99.99
2016-12-03T04:24:55.989Z,99.99
2016-12-03T04:25:56.598Z,99.99
2016-12-03T04:26:57.215Z,99.99
2016-12-03T04:27:57.834Z,99.99
2016-12-03T04:28:58.440Z,99.99
2016-12-03T04:29:59.046Z,99.99
2016-12-03T04:30:59.673Z,99.99
2016-12-03T04:32:00.277Z,99.99
2016-12-03T04:33:00.892Z,99.99
2016-12-03T04:34:01.507Z,99.99
2016-12-03T04:35:02.122Z,99.99
2016-12-03T04:36:02.750Z,99.99
2016-12-03T04:37:03.365Z,99.99
2016-12-03T04:38:03.963Z,99.99
2016-12-03T04:39:04.604Z,99.99
2016-12-03T04:40:05.235Z,99.99
2016-12-03T04:41:05.852Z,99.99
2016-12-03T04:42:06.471Z,99.99
2016-12-03T04:43:07.094Z,99.99
2016-12-03T04:44:07.706Z,99.99
2016-12-03T04:45:08.334Z,99.99
2016-12-03T04:46:08.962Z,99.99
2016-12-03T04:47:09.581Z,99.99
2016-12-03T04:48:10.195Z,99.99
2016-12-03T04:49:10.824Z,99.99
2016-12-03T04:50:11.439Z,99.99
2016-12-03T04:51:12.049Z,99.99
2016-12-03T04:52:12.685Z,99.99
2016-12-03T04:53:13.300Z,99.99
2016-12-03T04:54:13.922Z,99.99
2016-12-03T04:55:14.542Z,99.99
2016-12-03T04:56:15.168Z,99.99
2016-12-03T04:57:15.788Z,99.99
2016-12-03T04:58:16.398Z,99.99
2016-12-03T04:59:17.049Z,99.99
2016-12-03T05:00:17.667Z,99.99
2016-12-03T05:01:18.274Z,99.99
2016-12-03T05:02:18.900Z,99.99
2016-12-03T05:03:19.534Z,99.99
2016-12-03T05:04:20.155Z,99.99
2016-12-03T05:05:20.770Z,99.99
2016-12-03T05:06:21.385Z,99.99
2016-12-03T05:07:22.005Z,99.99
2016-12-03T05:08:22.625Z,99.99
2016-12-03T05:09:23.238Z,99.99
2016-12-03T05:10:23.867Z,99.99
2016-12-03T05:11:24.479Z,99.99
2016-12-03T05:12:25.104Z,99.99
2016-12-03T05:13:25.712Z,99.99
2016-12-03T05:14:26.352Z,99.99
2016-12-03T05:15:26.982Z,99.99
2016-12-03T05:16:27.629Z,99.99
2016-12-03T05:17:28.236Z,99.99
2016-12-03T05:18:28.851Z,99.99
2016-12-03T05:19:29.482Z,99.99
2016-12-03T05:20:30.088Z,99.99
2016-12-03T05:21:30.714Z,99.99
2016-12-03T05:22:31.364Z,99.99
2016-12-03T05:23:31.988Z,99.99
2016-12-03T05:24:32.608Z,99.99
2016-12-03T05:25:33.235Z,99.99
2016-12-03T05:26:33.856Z,99.99
2016-12-03T05:27:34.470Z,99.99
2016-12-03T05:28:35.097Z,99.99
2016-12-03T05:29:35.716Z,99.99
2016-12-03T05:30:36.335Z,99.99
2016-12-03T05:31:36.959Z,99.99
2016-12-03T05:32:37.580Z,99.99
2016-12-03T05:33:38.216Z,99.99
2016-12-03T05:34:38.827Z,99.99
2016-12-03T05:35:39.435Z,99.99
2016-12-03T05:36:40.048Z,99.99
2016-12-03T05:37:40.657Z,99.99
2016-12-03T05:38:41.274Z,99.99
2016-12-03T05:39:41.885Z,99.99
2016-12-03T05:40:42.517Z,99.99
2016-12-03T05:41:43.142Z,99.99
2016-12-03T05:42:43.768Z,99.99
2016-12-03T05:43:44.358Z,99.99
2016-12-03T05:44:45.000Z,99.99
2016-12-03T05:45:45.587Z,99.99
2016-12-03T05:46:46.203Z,99.99
2016-12-03T05:47:46.820Z,99.99
2016-12-03T05:48:47.431Z,99.99
2016-12-03T05:49:48.047Z,99.99
2016-12-03T05:50:48.661Z,99.99
2016-12-03T05:51:49.282Z,99.99
2016-12-03T05:52:49.887Z,99.99
2016-12-03T05:53:50.494Z,99.99
2016-12-03T05:54:51.110Z,99.99
2016-12-03T05:55:51.832Z,99.99
2016-12-03T05:56:52.453Z,99.99
2016-12-03T05:57:53.086Z,99.99
2016-12-03T05:58:53.714Z,99.99
2016-12-03T05:59:54.330Z,99.99
2016-12-03T06:00:54.949Z,99.99
2016-12-03T06:01:55.566Z,99.99
2016-12-03T06:02:56.196Z,99.99
2016-12-03T06:03:56.815Z,99.99
2016-12-03T06:04:57.423Z,99.99
2016-12-03T06:05:58.028Z,99.99
2016-12-03T06:06:58.656Z,99.99
2016-12-03T06:07:59.264Z,99.99
2016-12-03T06:08:59.872Z,99.99
2016-12-03T06:10:00.476Z,99.99
2016-12-03T06:11:01.089Z,99.99
2016-12-03T06:12:01.694Z,99.99
2016-12-03T06:13:02.315Z,99.99
2016-12-03T06:14:02.960Z,99.99
2016-12-03T06:15:03.582Z,99.99
2016-12-03T06:16:04.190Z,99.99
2016-12-03T06:17:04.801Z,99.99
2016-12-03T06:18:05.422Z,99.99
2016-12-03T06:19:06.046Z,99.99
2016-12-03T06:20:06.666Z,99.99
2016-12-03T06:21:07.263Z,99.99
2016-12-03T06:22:07.883Z,99.99
2016-12-03T06:23:08.507Z,99.99
2016-12-03T06:24:09.130Z,99.99
2016-12-03T06:25:09.751Z,99.99
2016-12-03T06:26:10.364Z,99.99
2016-12-03T06:27:10.995Z,99.99
2016-12-03T06:28:11.624Z,99.99
2016-12-03T06:29:12.232Z,99.99
2016-12-03T06:30:12.855Z,99.99
2016-12-03T06:31:13.474Z,99.99
2016-12-03T06:32:14.098Z,99.99
2016-12-03T06:33:14.715Z,99.99
2016-12-03T06:34:15.340Z,99.99
2016-12-03T06:35:15.959Z,99.99
2016-12-03T06:36:16.577Z,99.99
2016-12-03T06:37:17.210Z,99.99
2016-12-03T06:38:17.818Z,99.99
2016-12-03T06:39:18.426Z,99.99
2016-12-03T06:40:19.033Z,99.99
2016-12-03T06:41:19.650Z,99.99
2016-12-03T06:42:20.263Z,99.99
2016-12-03T06:43:20.907Z,99.99
2016-12-03T06:44:21.501Z,99.99
2016-12-03T06:45:22.112Z,99.99
2016-12-03T06:46:22.715Z,99.99
2016-12-03T06:47:23.326Z,99.99
2016-12-03T06:48:23.933Z,99.99
2016-12-03T06:49:24.557Z,99.99
2016-12-03T06:50:25.199Z,99.99
2016-12-03T06:51:25.807Z,99.99
2016-12-03T06:52:26.442Z,99.99
2016-12-03T06:53:27.056Z,99.99
2016-12-03T06:54:27.684Z,99.99
2016-12-03T06:55:28.318Z,99.99
2016-12-03T06:56:28.940Z,99.99
2016-12-03T06:57:29.579Z,99.99
2016-12-03T06:58:30.185Z,99.99
2016-12-03T06:59:30.808Z,99.99
2016-12-03T07:00:31.438Z,99.99
2016-12-03T07:01:32.053Z,99.99
2016-12-03T07:02:32.680Z,99.99
2016-12-03T07:03:33.294Z,99.99
2016-12-03T07:04:33.949Z,99.99
2016-12-03T07:05:34.562Z,99.99
2016-12-03T07:06:35.178Z,99.99
2016-12-03T07:07:35.800Z,99.99
2016-12-03T07:08:36.422Z,99.99
2016-12-03T07:09:37.040Z,99.99
2016-12-03T07:10:37.688Z,99.99
2016-12-03T07:11:38.323Z,99.99
2016-12-03T07:12:38.945Z,99.99
2016-12-03T07:13:39.570Z,99.99
2016-12-03T07:14:40.170Z,99.99
2016-12-03T07:15:40.783Z,99.99
2016-12-03T07:16:41.400Z,99.99
2016-12-03T07:17:42.008Z,99.99
2016-12-03T07:18:42.630Z,99.99
2016-12-03T07:19:43.238Z,99.99
2016-12-03T07:20:43.860Z,99.99
2016-12-03T07:21:44.493Z,99.99
2016-12-03T07:22:45.122Z,99.99
2016-12-03T07:23:45.737Z,99.99
2016-12-03T07:24:46.347Z,99.99
2016-12-03T07:25:46.978Z,99.99
2016-12-03T07:26:47.621Z,99.99
2016-12-03T07:27:48.230Z,99.99
2016-12-03T07:28:48.848Z,99.99
2016-12-03T07:29:49.456Z,99.99
2016-12-03T07:30:50.089Z,99.99
2016-12-03T07:31:50.723Z,99.99
2016-12-03T07:32:51.343Z,99.99
2016-12-03T07:33:51.958Z,99.99
2016-12-03T07:34:52.599Z,99.99
2016-12-03T07:35:53.210Z,99.99
2016-12-03T07:36:53.821Z,99.99
2016-12-03T07:37:54.435Z,99.99
2016-12-03T07:38:55.056Z,99.99
2016-12-03T07:39:55.679Z,99.99
2016-12-03T07:40:56.323Z,99.99
2016-12-03T07:41:56.941Z,99.99
2016-12-03T07:42:57.554Z,99.99
2016-12-03T07:43:58.165Z,99.99
2016-12-03T07:44:58.798Z,99.99
2016-12-03T07:45:59.425Z,99.99
2016-12-03T07:47:00.049Z,99.99
2016-12-03T07:48:00.683Z,99.99
2016-12-03T07:49:01.304Z,99.99
2016-12-03T07:50:01.952Z,99.99
2016-12-03T07:51:02.577Z,99.99
2016-12-03T07:52:03.187Z,99.99
2016-12-03T07:53:03.795Z,99.99
2016-12-03T07:54:04.405Z,99.99
2016-12-03T07:55:05.038Z,99.99
2016-12-03T07:56:05.656Z,99.99
2016-12-03T07:57:06.265Z,99.99
2016-12-03T07:58:06.884Z,99.99
2016-12-03T07:59:07.497Z,99.99
2016-12-03T08:00:08.111Z,99.99
2016-12-03T08:01:08.721Z,99.99
2016-12-03T08:02:09.340Z,99.99
2016-12-03T08:03:09.968Z,99.99
2016-12-03T08:04:10.585Z,99.99
2016-12-03T08:05:11.204Z,99.99
2016-12-03T08:06:11.825Z,99.99
2016-12-03T08:07:12.461Z,99.99
2016-12-03T08:08:13.128Z,99.99
2016-12-03T08:09:13.765Z,99.99
2016-12-03T08:10:14.381Z,99.99
2016-12-03T08:11:14.999Z,99.99
2016-12-03T08:12:15.619Z,99.99
2016-12-03T08:13:16.232Z,99.99
2016-12-03T08:14:16.842Z,99.99
2016-12-03T08:15:17.460Z,99.99
2016-12-03T08:16:18.081Z,99.99
2016-12-03T08:17:18.691Z,99.99
2016-12-03T08:18:19.339Z,99.99
2016-12-03T08:19:20.018Z,99.99
2016-12-03T08:20:20.651Z,99.99
2016-12-03T08:21:21.253Z,99.99
2016-12-03T08:22:21.876Z,99.99
2016-12-03T08:23:22.508Z,99.99
2016-12-03T08:24:23.140Z,99.99
2016-12-03T08:25:23.755Z,99.99
2016-12-03T08:26:24.378Z,99.99
2016-12-03T08:27:24.997Z,99.99
2016-12-03T08:28:25.635Z,99.99
2016-12-03T08:29:26.261Z,99.99
2016-12-03T08:30:26.881Z,99.99
2016-12-03T08:31:27.489Z,99.99
2016-12-03T08:32:28.124Z,99.99
2016-12-03T08:33:28.758Z,99.99
2016-12-03T08:34:29.412Z,99.99
2016-12-03T08:35:30.044Z,99.99
2016-12-03T08:36:30.686Z,99.99
2016-12-03T08:37:31.505Z,99.62
2016-12-03T08:38:32.168Z,99.15
2016-12-03T08:39:32.839Z,99.33
2016-12-03T08:40:33.701Z,98.77
2016-12-03T08:41:34.331Z,98.29
2016-12-03T08:42:34.975Z,98.67
2016-12-03T08:43:35.646Z,98.2
2016-12-03T08:44:36.269Z,98.01
2016-12-03T08:45:36.895Z,98.29
2016-12-03T08:46:37.530Z,98.2
2016-12-03T08:47:38.143Z,98.2
2016-12-03T08:48:38.779Z,98.2
2016-12-03T08:49:39.416Z,98.01
2016-12-03T08:50:40.034Z,98.2
2016-12-03T08:51:40.666Z,97.63
2016-12-03T08:52:41.282Z,97.34
2016-12-03T08:53:41.908Z,98.01
2016-12-03T08:54:42.531Z,97.91
2016-12-03T08:55:43.156Z,97.72
2016-12-03T08:56:43.787Z,97.63
2016-12-03T08:57:44.415Z,98.1
2016-12-03T08:58:45.055Z,98.67
2016-12-03T08:59:45.757Z,98.86
2016-12-03T09:00:46.379Z,98.39
2016-12-03T09:01:47.209Z,98.86
2016-12-03T09:02:47.820Z,98.29
2016-12-03T09:03:48.475Z,98.77
2016-12-03T09:04:49.179Z,98.58
2016-12-03T09:05:49.855Z,98.39
2016-12-03T09:06:50.467Z,98.67
2016-12-03T09:07:51.093Z,99.05
2016-12-03T09:08:51.723Z,98.77
2016-12-03T09:09:52.343Z,98.77
2016-12-03T09:10:52.964Z,98.67
2016-12-03T09:11:53.572Z,98.67
2016-12-03T09:12:54.188Z,98.77
2016-12-03T09:13:54.802Z,98.2
2016-12-03T09:14:55.416Z,98.2
2016-12-03T09:15:56.028Z,98.2
2016-12-03T09:16:56.722Z,98.01
2016-12-03T09:17:57.325Z,98.39
2016-12-03T09:18:57.964Z,98.67
2016-12-03T09:19:58.584Z,98.96
2016-12-03T09:20:59.197Z,98.86
2016-12-03T09:21:59.806Z,98.48
2016-12-03T09:23:00.465Z,98.2
2016-12-03T09:24:01.080Z,98.39
2016-12-03T09:25:01.700Z,98.58
2016-12-03T09:26:02.333Z,98.01
2016-12-03T09:27:02.946Z,98.2
2016-12-03T09:28:03.562Z,97.82
2016-12-03T09:29:04.190Z,98.48
2016-12-03T09:30:04.781Z,98.67
2016-12-03T09:31:05.401Z,98.29
2016-12-03T09:32:06.011Z,98.77
2016-12-03T09:33:06.701Z,98.67
2016-12-03T09:34:07.356Z,98.2
2016-12-03T09:35:07.977Z,98.58
2016-12-03T09:36:08.599Z,98.01
2016-12-03T09:37:09.222Z,98.2
2016-12-03T09:38:09.863Z,98.01
2016-12-03T09:39:10.500Z,97.63
2016-12-03T09:40:11.145Z,97.82
2016-12-03T09:41:11.766Z,97.63
2016-12-03T09:42:12.390Z,97.63
2016-12-03T09:43:13.026Z,97.72
2016-12-03T09:44:13.675Z,97.72
2016-12-03T09:45:14.335Z,97.82
2016-12-03T09:46:14.997Z,97.63
2016-12-03T09:47:15.647Z,98.48
2016-12-03T09:48:16.285Z,98.1
2016-12-03T09:49:16.922Z,97.82
2016-12-03T09:50:17.558Z,98.1
2016-12-03T09:51:18.165Z,98.2
2016-12-03T09:52:18.791Z,98.39
2016-12-03T09:53:19.403Z,97.82
2016-12-03T09:54:20.014Z,97.72
2016-12-03T09:55:20.641Z,97.82
2016-12-03T09:56:21.289Z,97.34
2016-12-03T09:57:21.906Z,97.16
2016-12-03T09:58:22.523Z,97.82
2016-12-03T09:59:23.159Z,97.72
2016-12-03T10:00:23.778Z,97.34
2016-12-03T10:01:24.394Z,97.82
2016-12-03T10:02:25.030Z,97.53
2016-12-03T10:03:25.651Z,97.82
2016-12-03T10:04:26.281Z,97.87
2016-12-03T10:05:26.895Z,97.96
2016-12-03T10:06:27.504Z,98.15
2016-12-03T10:07:28.119Z,98.34
2016-12-03T10:08:28.739Z,97.87
2016-12-03T10:09:29.381Z,98.25
2016-12-03T10:10:29.980Z,98.06
2016-12-03T10:11:30.603Z,98.25
2016-12-03T10:12:31.257Z,98.25
2016-12-03T10:13:31.888Z,98.06
2016-12-03T10:14:32.520Z,98.25
2016-12-03T10:15:33.174Z,98.15
2016-12-03T10:16:33.787Z,98.25
2016-12-03T10:17:34.400Z,98.06
2016-12-03T10:18:35.015Z,97.96
2016-12-03T10:19:35.651Z,97.49
2016-12-03T10:20:36.272Z,98.25
2016-12-03T10:21:36.906Z,98.34
2016-12-03T10:22:37.518Z,97.87
2016-12-03T10:23:38.195Z,97.96
2016-12-03T10:24:38.862Z,98.25
2016-12-03T10:25:39.477Z,98.25
2016-12-03T10:26:40.103Z,98.44
2016-12-03T10:27:40.717Z,97.96
2016-12-03T10:28:41.351Z,97.68
2016-12-03T10:29:41.985Z,98.44
2016-12-03T10:30:42.589Z,98.25
2016-12-03T10:31:43.212Z,98.25
2016-12-03T10:32:43.826Z,97.96
2016-12-03T10:33:44.445Z,98.25
2016-12-03T10:34:45.076Z,98.25
2016-12-03T10:35:45.722Z,98.25
2016-12-03T10:36:46.341Z,98.44
2016-12-03T10:37:46.973Z,98.49
2016-12-03T10:38:47.593Z,97.87
2016-12-03T10:39:48.239Z,98.44
2016-12-03T10:40:48.862Z,98.39
2016-12-03T10:41:49.513Z,97.96
2016-12-03T10:42:50.135Z,98.06
2016-12-03T10:43:50.755Z,98.01
2016-12-03T10:44:51.420Z,98.49
2016-12-03T10:45:52.054Z,98.2
2016-12-03T10:46:52.679Z,97.82
2016-12-03T10:47:53.296Z,98.01
2016-12-03T10:48:53.905Z,97.73
2016-12-03T10:49:54.538Z,97.77
2016-12-03T10:50:55.219Z,97.92
2016-12-03T10:51:55.888Z,97.92
2016-12-03T10:52:56.527Z,97.73
2016-12-03T10:53:57.180Z,97.63
2016-12-03T10:54:57.793Z,97.92
2016-12-03T10:55:58.421Z,97.63
2016-12-03T10:56:59.039Z,98.01
2016-12-03T10:57:59.685Z,97.82
2016-12-03T10:59:00.301Z,97.82
2016-12-03T11:00:00.921Z,98.01
2016-12-03T11:01:01.540Z,97.92
2016-12-03T11:02:02.152Z,97.92
2016-12-03T11:03:02.789Z,97.92
2016-12-03T11:04:03.410Z,97.35
2016-12-03T11:05:04.056Z,97.35
2016-12-03T11:06:04.681Z,97.44
2016-12-03T11:07:05.313Z,97.35
2016-12-03T11:08:05.954Z,98.01
2016-12-03T11:09:06.563Z,97.44
2016-12-03T11:10:07.186Z,98.01
2016-12-03T11:11:07.830Z,97.92
2016-12-03T11:12:08.473Z,97.82
2016-12-03T11:13:09.088Z,97.25
2016-12-03T11:14:09.715Z,96.78
2016-12-03T11:15:10.337Z,96.78
2016-12-03T11:16:10.949Z,97.63
2016-12-03T11:17:11.569Z,97.73
2016-12-03T11:18:12.188Z,97.73
2016-12-03T11:19:12.819Z,97.63
2016-12-03T11:20:13.447Z,97.63
2016-12-03T11:21:14.069Z,97.54
2016-12-03T11:22:14.714Z,97.54
2016-12-03T11:23:15.323Z,97.44
2016-12-03T11:24:15.963Z,97.35
2016-12-03T11:25:16.573Z,97.35
2016-12-03T11:26:17.224Z,97.54
2016-12-03T11:27:17.847Z,97.63
2016-12-03T11:28:18.504Z,97.25
2016-12-03T11:29:19.117Z,96.88
2016-12-03T11:30:19.754Z,96.97
2016-12-03T11:31:20.382Z,97.73
2016-12-03T11:32:21.004Z,97.44
2016-12-03T11:33:21.670Z,97.06
2016-12-03T11:34:22.250Z,97.25
2016-12-03T11:35:22.871Z,97.06
2016-12-03T11:36:23.519Z,97.06
2016-12-03T11:37:24.131Z,97.16
2016-12-03T11:38:24.782Z,97.16
2016-12-03T11:39:25.444Z,97.02
2016-12-03T11:40:26.069Z,97.68
2016-12-03T11:41:26.724Z,97.11
2016-12-03T11:42:27.344Z,97.11
2016-12-03T11:43:27.969Z,97.68
2016-12-03T11:44:28.589Z,97.78
2016-12-03T11:45:29.204Z,98.06
2016-12-03T11:46:29.839Z,97.78
2016-12-03T11:47:30.462Z,98.06
2016-12-03T11:48:31.119Z,97.49
2016-12-03T11:49:31.764Z,97.3
2016-12-03T11:50:32.379Z,97.4
2016-12-03T11:51:33.032Z,97.78
2016-12-03T11:52:33.671Z,98.06
2016-12-03T11:53:34.296Z,98.06
2016-12-03T11:54:34.959Z,98.06
2016-12-03T11:55:35.591Z,97.3
2016-12-03T11:56:36.201Z,97.68
2016-12-03T11:57:36.926Z,97.21
2016-12-03T11:58:37.598Z,97.11
2016-12-03T11:59:38.228Z,97.21
2016-12-03T12:00:38.857Z,97.21
2016-12-03T12:01:39.461Z,97.21
2016-12-03T12:02:40.088Z,97.3
2016-12-03T12:03:40.701Z,97.11
2016-12-03T12:04:41.320Z,97.21
2016-12-03T12:05:41.959Z,97.21
2016-12-03T12:06:42.582Z,97.11
2016-12-03T12:07:43.204Z,97.21
2016-12-03T12:08:43.816Z,97.3
2016-12-03T12:09:44.431Z,97.21
2016-12-03T12:10:45.047Z,97.21
2016-12-03T12:11:45.670Z,97.02
2016-12-03T12:12:46.311Z,97.21
2016-12-03T12:13:47.003Z,96.83
2016-12-03T12:14:47.638Z,97.4
2016-12-03T12:15:48.274Z,97.02
2016-12-03T12:16:48.917Z,97.21
2016-12-03T12:17:49.559Z,97.3
2016-12-03T12:18:50.176Z,97.3
2016-12-03T12:19:50.782Z,97.21
2016-12-03T12:20:51.414Z,97.02
2016-12-03T12:21:52.066Z,97.49
2016-12-03T12:22:52.684Z,97.11
2016-12-03T12:23:53.317Z,97.3
2016-12-03T12:24:53.942Z,97.3
2016-12-03T12:25:54.614Z,97.49
2016-12-03T12:26:55.237Z,97.3
2016-12-03T12:27:55.886Z,97.02
2016-12-03T12:28:56.512Z,97.11
2016-12-03T12:29:57.155Z,96.83
2016-12-03T12:30:57.799Z,97.3
2016-12-03T12:31:58.405Z,97.3
2016-12-03T12:32:59.049Z,97.3
2016-12-03T12:33:59.651Z,97.3
2016-12-03T12:35:00.270Z,97.59
2016-12-03T12:36:00.909Z,97.49
2016-12-03T12:37:01.512Z,97.21
2016-12-03T12:38:02.176Z,97.59
2016-12-03T12:39:02.790Z,97.68
2016-12-03T12:40:03.406Z,97.11
2016-12-03T12:41:04.059Z,97.11
2016-12-03T12:42:04.704Z,97.3
2016-12-03T12:43:05.348Z,97.11
2016-12-03T12:44:06.001Z,97.3
2016-12-03T12:45:06.639Z,97.11
2016-12-03T12:46:07.277Z,97.49
2016-12-03T12:47:07.945Z,98.16
2016-12-03T12:48:08.572Z,97.97
2016-12-03T12:49:09.226Z,97.59
2016-12-03T12:50:09.841Z,97.4
2016-12-03T12:51:10.474Z,97.3
2016-12-03T12:52:11.079Z,97.21
2016-12-03T12:53:11.699Z,96.92
2016-12-03T12:54:12.332Z,96.73
2016-12-03T12:55:12.973Z,96.92
2016-12-03T12:56:13.610Z,96.73
2016-12-03T12:57:14.215Z,96.92
2016-12-03T12:58:14.836Z,96.73
2016-12-03T12:59:15.453Z,97.11
2016-12-03T13:00:16.075Z,96.83
2016-12-03T13:01:16.702Z,96.92